sensor_id;sensor_type;location;lat;lon;timestamp;P1;durP1;ratioP1;P2;durP2;ratioP2
64208;SDS011;50527;52.414;13.226;2023-10-08T00:02:08;0.75;;;0.10;;
64208;SDS011;50527;52.414;13.226;2023-10-08T00:04:39;2.40;;;0.30;;
64208;SDS011;50527;52.414;13.226;2023-10-08T00:07:05;2.35;;;0.17;;
64208;SDS011;50527;52.414;13.226;2023-10-08T00:09:33;0.95;;;0.15;;
64208;SDS011;50527;52.414;13.226;2023-10-08T00:12:02;1.83;;;0.30;;
64208;SDS011;50527;52.414;13.226;2023-10-08T00:14:28;3.03;;;0.30;;
64208;SDS011;50527;52.414;13.226;2023-10-08T00:16:54;3.13;;;0.30;;
64208;SDS011;50527;52.414;13.226;2023-10-08T00:19:19;1.52;;;0.30;;
64208;SDS011;50527;52.414;13.226;2023-10-08T00:21:46;2.97;;;0.35;;
64208;SDS011;50527;52.414;13.226;2023-10-08T00:24:14;2.22;;;0.40;;
64208;SDS011;50527;52.414;13.226;2023-10-08T00:26:40;1.70;;;0.35;;
64208;SDS011;50527;52.414;13.226;2023-10-08T00:29:06;3.33;;;0.20;;
64208;SDS011;50527;52.414;13.226;2023-10-08T00:31:43;1.88;;;0.20;;
64208;SDS011;50527;52.414;13.226;2023-10-08T00:34:10;1.50;;;0.20;;
64208;SDS011;50527;52.414;13.226;2023-10-08T00:36:39;0.55;;;0.10;;
64208;SDS011;50527;52.414;13.226;2023-10-08T00:39:06;1.08;;;0.35;;
64208;SDS011;50527;52.414;13.226;2023-10-08T00:41:38;1.20;;;0.20;;
64208;SDS011;50527;52.414;13.226;2023-10-08T00:44:06;0.70;;;0.20;;
64208;SDS011;50527;52.414;13.226;2023-10-08T00:46:33;3.08;;;0.30;;
64208;SDS011;50527;52.414;13.226;2023-10-08T00:49:07;2.20;;;0.15;;
64208;SDS011;50527;52.414;13.226;2023-10-08T00:51:52;1.30;;;0.20;;
64208;SDS011;50527;52.414;13.226;2023-10-08T00:54:25;0.50;;;0.20;;
64208;SDS011;50527;52.414;13.226;2023-10-08T00:56:54;1.05;;;0.20;;
64208;SDS011;50527;52.414;13.226;2023-10-08T00:59:25;3.45;;;0.20;;
64208;SDS011;50527;52.414;13.226;2023-10-08T01:01:51;2.45;;;0.30;;
64208;SDS011;50527;52.414;13.226;2023-10-08T01:04:32;2.28;;;0.30;;
64208;SDS011;50527;52.414;13.226;2023-10-08T01:10:16;2.22;;;0.22;;
64208;SDS011;50527;52.414;13.226;2023-10-08T01:12:45;1.70;;;0.20;;
64208;SDS011;50527;52.414;13.226;2023-10-08T01:15:26;3.60;;;0.32;;
64208;SDS011;50527;52.414;13.226;2023-10-08T01:17:55;1.25;;;0.30;;
64208;SDS011;50527;52.414;13.226;2023-10-08T01:20:29;1.40;;;0.20;;
64208;SDS011;50527;52.414;13.226;2023-10-08T01:22:58;1.58;;;0.30;;
64208;SDS011;50527;52.414;13.226;2023-10-08T01:25:24;1.70;;;0.30;;
64208;SDS011;50527;52.414;13.226;2023-10-08T01:27:57;3.35;;;0.43;;
64208;SDS011;50527;52.414;13.226;2023-10-08T01:30:26;1.53;;;0.30;;
64208;SDS011;50527;52.414;13.226;2023-10-08T01:32:59;2.78;;;0.50;;
64208;SDS011;50527;52.414;13.226;2023-10-08T01:35:27;2.45;;;0.38;;
64208;SDS011;50527;52.414;13.226;2023-10-08T01:37:53;2.53;;;0.30;;
64208;SDS011;50527;52.414;13.226;2023-10-08T01:40:21;9.90;;;0.57;;
64208;SDS011;50527;52.414;13.226;2023-10-08T01:42:50;1.85;;;0.40;;
64208;SDS011;50527;52.414;13.226;2023-10-08T01:45:16;0.52;;;0.30;;
64208;SDS011;50527;52.414;13.226;2023-10-08T01:47:43;2.42;;;0.50;;
64208;SDS011;50527;52.414;13.226;2023-10-08T01:50:09;5.63;;;0.30;;
64208;SDS011;50527;52.414;13.226;2023-10-08T01:52:46;3.33;;;0.70;;
64208;SDS011;50527;52.414;13.226;2023-10-08T01:55:12;3.28;;;0.35;;
64208;SDS011;50527;52.414;13.226;2023-10-08T01:57:42;4.85;;;0.80;;
64208;SDS011;50527;52.414;13.226;2023-10-08T02:00:08;2.95;;;0.60;;
64208;SDS011;50527;52.414;13.226;2023-10-08T02:02:34;4.78;;;0.45;;
64208;SDS011;50527;52.414;13.226;2023-10-08T02:05:00;2.28;;;0.47;;
64208;SDS011;50527;52.414;13.226;2023-10-08T02:07:26;3.33;;;0.40;;
64208;SDS011;50527;52.414;13.226;2023-10-08T02:09:51;2.20;;;0.60;;
64208;SDS011;50527;52.414;13.226;2023-10-08T02:12:18;1.23;;;0.30;;
64208;SDS011;50527;52.414;13.226;2023-10-08T02:14:43;1.02;;;0.40;;
64208;SDS011;50527;52.414;13.226;2023-10-08T02:17:09;4.45;;;0.60;;
64208;SDS011;50527;52.414;13.226;2023-10-08T02:19:35;4.82;;;0.65;;
64208;SDS011;50527;52.414;13.226;2023-10-08T02:22:02;3.75;;;0.50;;
64208;SDS011;50527;52.414;13.226;2023-10-08T02:24:30;1.70;;;0.50;;
64208;SDS011;50527;52.414;13.226;2023-10-08T02:26:56;2.58;;;0.60;;
64208;SDS011;50527;52.414;13.226;2023-10-08T02:29:24;2.05;;;0.50;;
64208;SDS011;50527;52.414;13.226;2023-10-08T02:31:51;3.25;;;0.40;;
64208;SDS011;50527;52.414;13.226;2023-10-08T02:34:18;1.88;;;0.40;;
64208;SDS011;50527;52.414;13.226;2023-10-08T02:36:44;2.75;;;0.55;;
64208;SDS011;50527;52.414;13.226;2023-10-08T02:39:12;3.90;;;0.75;;
64208;SDS011;50527;52.414;13.226;2023-10-08T02:41:42;4.55;;;0.50;;
64208;SDS011;50527;52.414;13.226;2023-10-08T02:44:11;3.65;;;0.55;;
64208;SDS011;50527;52.414;13.226;2023-10-08T02:46:39;6.18;;;0.65;;
64208;SDS011;50527;52.414;13.226;2023-10-08T02:49:14;3.22;;;0.30;;
64208;SDS011;50527;52.414;13.226;2023-10-08T02:51:48;5.28;;;0.63;;
64208;SDS011;50527;52.414;13.226;2023-10-08T02:54:19;3.35;;;0.70;;
64208;SDS011;50527;52.414;13.226;2023-10-08T02:56:49;3.85;;;0.57;;
64208;SDS011;50527;52.414;13.226;2023-10-08T02:59:28;2.60;;;0.57;;
64208;SDS011;50527;52.414;13.226;2023-10-08T03:02:04;4.70;;;0.80;;
64208;SDS011;50527;52.414;13.226;2023-10-08T03:04:38;2.95;;;0.38;;
64208;SDS011;50527;52.414;13.226;2023-10-08T03:07:05;2.33;;;0.40;;
64208;SDS011;50527;52.414;13.226;2023-10-08T03:09:36;1.48;;;0.40;;
64208;SDS011;50527;52.414;13.226;2023-10-08T03:12:06;3.50;;;0.55;;
64208;SDS011;50527;52.414;13.226;2023-10-08T03:14:35;4.05;;;0.43;;
64208;SDS011;50527;52.414;13.226;2023-10-08T03:17:12;2.92;;;0.60;;
64208;SDS011;50527;52.414;13.226;2023-10-08T03:19:44;6.22;;;0.50;;
64208;SDS011;50527;52.414;13.226;2023-10-08T03:22:10;4.13;;;0.60;;
64208;SDS011;50527;52.414;13.226;2023-10-08T03:24:37;3.60;;;0.40;;
64208;SDS011;50527;52.414;13.226;2023-10-08T03:27:03;4.55;;;0.60;;
64208;SDS011;50527;52.414;13.226;2023-10-08T03:29:51;2.25;;;0.55;;
64208;SDS011;50527;52.414;13.226;2023-10-08T03:32:19;1.60;;;0.32;;
64208;SDS011;50527;52.414;13.226;2023-10-08T03:34:51;2.37;;;0.40;;
64208;SDS011;50527;52.414;13.226;2023-10-08T03:37:20;1.92;;;0.50;;
64208;SDS011;50527;52.414;13.226;2023-10-08T03:39:54;4.22;;;0.63;;
64208;SDS011;50527;52.414;13.226;2023-10-08T03:42:26;6.10;;;0.52;;
64208;SDS011;50527;52.414;13.226;2023-10-08T03:44:58;10.10;;;0.70;;
64208;SDS011;50527;52.414;13.226;2023-10-08T03:47:34;2.38;;;0.50;;
64208;SDS011;50527;52.414;13.226;2023-10-08T03:50:02;8.60;;;0.77;;
64208;SDS011;50527;52.414;13.226;2023-10-08T03:52:32;2.30;;;0.50;;
64208;SDS011;50527;52.414;13.226;2023-10-08T03:55:02;5.45;;;0.60;;
64208;SDS011;50527;52.414;13.226;2023-10-08T03:57:43;2.10;;;0.73;;
64208;SDS011;50527;52.414;13.226;2023-10-08T04:00:09;3.70;;;0.40;;
64208;SDS011;50527;52.414;13.226;2023-10-08T04:02:42;1.88;;;0.43;;
64208;SDS011;50527;52.414;13.226;2023-10-08T04:05:19;5.63;;;0.73;;
64208;SDS011;50527;52.414;13.226;2023-10-08T04:07:46;6.38;;;0.80;;
64208;SDS011;50527;52.414;13.226;2023-10-08T04:10:32;3.22;;;0.70;;
64208;SDS011;50527;52.414;13.226;2023-10-08T04:13:03;2.25;;;0.40;;
64208;SDS011;50527;52.414;13.226;2023-10-08T04:15:33;1.67;;;0.30;;
64208;SDS011;50527;52.414;13.226;2023-10-08T04:17:59;2.78;;;0.30;;
64208;SDS011;50527;52.414;13.226;2023-10-08T04:20:27;3.55;;;0.55;;
64208;SDS011;50527;52.414;13.226;2023-10-08T04:23:02;3.17;;;0.50;;
64208;SDS011;50527;52.414;13.226;2023-10-08T04:25:29;3.55;;;0.63;;
64208;SDS011;50527;52.414;13.226;2023-10-08T04:27:56;2.97;;;0.40;;
64208;SDS011;50527;52.414;13.226;2023-10-08T04:30:33;3.83;;;0.52;;
64208;SDS011;50527;52.414;13.226;2023-10-08T04:33:00;6.18;;;0.63;;
64208;SDS011;50527;52.414;13.226;2023-10-08T04:35:36;4.35;;;0.70;;
64208;SDS011;50527;52.414;13.226;2023-10-08T04:38:12;5.63;;;0.63;;
64208;SDS011;50527;52.414;13.226;2023-10-08T04:40:44;2.17;;;0.95;;
64208;SDS011;50527;52.414;13.226;2023-10-08T04:43:23;2.30;;;0.50;;
64208;SDS011;50527;52.414;13.226;2023-10-08T04:46:00;8.35;;;0.90;;
64208;SDS011;50527;52.414;13.226;2023-10-08T04:48:45;1.45;;;0.50;;
64208;SDS011;50527;52.414;13.226;2023-10-08T04:51:11;8.90;;;0.65;;
64208;SDS011;50527;52.414;13.226;2023-10-08T04:53:37;9.98;;;0.88;;
64208;SDS011;50527;52.414;13.226;2023-10-08T04:56:06;1.63;;;0.47;;
64208;SDS011;50527;52.414;13.226;2023-10-08T04:58:41;3.85;;;0.75;;
64208;SDS011;50527;52.414;13.226;2023-10-08T05:01:12;1.52;;;0.50;;
64208;SDS011;50527;52.414;13.226;2023-10-08T05:04:03;12.90;;;0.90;;
64208;SDS011;50527;52.414;13.226;2023-10-08T05:06:29;1.50;;;0.50;;
64208;SDS011;50527;52.414;13.226;2023-10-08T05:09:05;5.72;;;0.57;;
64208;SDS011;50527;52.414;13.226;2023-10-08T05:11:43;2.30;;;0.60;;
64208;SDS011;50527;52.414;13.226;2023-10-08T05:14:15;4.35;;;0.63;;
64208;SDS011;50527;52.414;13.226;2023-10-08T05:17:00;5.05;;;0.60;;
64208;SDS011;50527;52.414;13.226;2023-10-08T05:19:47;3.70;;;0.80;;
64208;SDS011;50527;52.414;13.226;2023-10-08T05:22:36;4.95;;;0.60;;
64208;SDS011;50527;52.414;13.226;2023-10-08T05:25:02;4.82;;;0.90;;
64208;SDS011;50527;52.414;13.226;2023-10-08T05:27:43;4.25;;;0.52;;
64208;SDS011;50527;52.414;13.226;2023-10-08T05:30:12;3.85;;;0.80;;
64208;SDS011;50527;52.414;13.226;2023-10-08T05:32:50;4.97;;;0.65;;
64208;SDS011;50527;52.414;13.226;2023-10-08T05:35:28;1.73;;;0.52;;
64208;SDS011;50527;52.414;13.226;2023-10-08T05:38:10;3.03;;;0.65;;
64208;SDS011;50527;52.414;13.226;2023-10-08T05:40:59;6.53;;;0.70;;
64208;SDS011;50527;52.414;13.226;2023-10-08T05:43:26;3.05;;;0.50;;
64208;SDS011;50527;52.414;13.226;2023-10-08T05:46:08;3.53;;;0.60;;
64208;SDS011;50527;52.414;13.226;2023-10-08T05:48:47;3.83;;;0.75;;
64208;SDS011;50527;52.414;13.226;2023-10-08T05:51:41;2.38;;;0.50;;
64208;SDS011;50527;52.414;13.226;2023-10-08T05:54:13;3.50;;;0.60;;
64208;SDS011;50527;52.414;13.226;2023-10-08T05:56:52;2.35;;;0.50;;
64208;SDS011;50527;52.414;13.226;2023-10-08T05:59:37;5.63;;;0.77;;
64208;SDS011;50527;52.414;13.226;2023-10-08T06:05:13;7.05;;;0.98;;
64208;SDS011;50527;52.414;13.226;2023-10-08T06:07:39;7.85;;;0.82;;
64208;SDS011;50527;52.414;13.226;2023-10-08T06:10:16;3.33;;;0.52;;
64208;SDS011;50527;52.414;13.226;2023-10-08T06:15:39;5.65;;;0.73;;
64208;SDS011;50527;52.414;13.226;2023-10-08T06:18:21;5.32;;;0.60;;
64208;SDS011;50527;52.414;13.226;2023-10-08T06:21:01;3.08;;;0.60;;
64208;SDS011;50527;52.414;13.226;2023-10-08T06:23:34;4.57;;;0.80;;
64208;SDS011;50527;52.414;13.226;2023-10-08T06:26:01;5.32;;;0.75;;
64208;SDS011;50527;52.414;13.226;2023-10-08T06:28:31;5.05;;;0.63;;
64208;SDS011;50527;52.414;13.226;2023-10-08T06:31:00;3.67;;;0.55;;
64208;SDS011;50527;52.414;13.226;2023-10-08T06:33:27;3.83;;;0.40;;
64208;SDS011;50527;52.414;13.226;2023-10-08T06:36:02;3.17;;;0.70;;
64208;SDS011;50527;52.414;13.226;2023-10-08T06:38:42;1.90;;;0.50;;
64208;SDS011;50527;52.414;13.226;2023-10-08T06:41:10;3.38;;;0.52;;
64208;SDS011;50527;52.414;13.226;2023-10-08T06:43:39;1.52;;;0.50;;
64208;SDS011;50527;52.414;13.226;2023-10-08T06:46:11;3.22;;;0.55;;
64208;SDS011;50527;52.414;13.226;2023-10-08T06:48:37;6.22;;;0.88;;
64208;SDS011;50527;52.414;13.226;2023-10-08T06:51:07;4.35;;;0.63;;
64208;SDS011;50527;52.414;13.226;2023-10-08T06:53:42;2.42;;;0.75;;
64208;SDS011;50527;52.414;13.226;2023-10-08T06:56:09;4.05;;;0.60;;
64208;SDS011;50527;52.414;13.226;2023-10-08T06:58:37;2.72;;;0.47;;
64208;SDS011;50527;52.414;13.226;2023-10-08T07:01:03;1.95;;;0.50;;
64208;SDS011;50527;52.414;13.226;2023-10-08T07:03:30;4.43;;;0.52;;
64208;SDS011;50527;52.414;13.226;2023-10-08T07:05:56;3.35;;;0.70;;
64208;SDS011;50527;52.414;13.226;2023-10-08T07:08:31;5.80;;;0.70;;
64208;SDS011;50527;52.414;13.226;2023-10-08T07:10:57;3.60;;;0.40;;
64208;SDS011;50527;52.414;13.226;2023-10-08T07:13:26;1.92;;;0.50;;
64208;SDS011;50527;52.414;13.226;2023-10-08T07:15:54;2.95;;;0.55;;
64208;SDS011;50527;52.414;13.226;2023-10-08T07:18:21;5.82;;;0.60;;
64208;SDS011;50527;52.414;13.226;2023-10-08T07:20:50;3.33;;;0.60;;
64208;SDS011;50527;52.414;13.226;2023-10-08T07:23:21;2.05;;;0.38;;
64208;SDS011;50527;52.414;13.226;2023-10-08T07:25:57;2.25;;;0.40;;
64208;SDS011;50527;52.414;13.226;2023-10-08T07:28:40;3.60;;;0.70;;
64208;SDS011;50527;52.414;13.226;2023-10-08T07:31:15;2.25;;;0.40;;
64208;SDS011;50527;52.414;13.226;2023-10-08T07:33:42;1.50;;;0.25;;
64208;SDS011;50527;52.414;13.226;2023-10-08T07:36:12;5.15;;;0.68;;
64208;SDS011;50527;52.414;13.226;2023-10-08T07:38:39;4.70;;;0.73;;
64208;SDS011;50527;52.414;13.226;2023-10-08T07:41:08;3.33;;;0.70;;
64208;SDS011;50527;52.414;13.226;2023-10-08T07:43:37;2.58;;;0.52;;
64208;SDS011;50527;52.414;13.226;2023-10-08T07:46:07;2.65;;;0.30;;
64208;SDS011;50527;52.414;13.226;2023-10-08T07:48:34;3.63;;;0.60;;
64208;SDS011;50527;52.414;13.226;2023-10-08T07:51:00;4.25;;;0.40;;
64208;SDS011;50527;52.414;13.226;2023-10-08T07:53:26;4.50;;;0.43;;
64208;SDS011;50527;52.414;13.226;2023-10-08T07:56:03;4.05;;;0.32;;
64208;SDS011;50527;52.414;13.226;2023-10-08T07:58:31;0.93;;;0.35;;
64208;SDS011;50527;52.414;13.226;2023-10-08T08:01:02;3.47;;;0.35;;
64208;SDS011;50527;52.414;13.226;2023-10-08T08:03:34;3.97;;;0.32;;
64208;SDS011;50527;52.414;13.226;2023-10-08T08:06:06;6.65;;;0.30;;
64208;SDS011;50527;52.414;13.226;2023-10-08T08:08:33;4.30;;;0.43;;
64208;SDS011;50527;52.414;13.226;2023-10-08T08:11:00;3.13;;;0.40;;
64208;SDS011;50527;52.414;13.226;2023-10-08T08:13:37;1.02;;;0.30;;
64208;SDS011;50527;52.414;13.226;2023-10-08T08:16:03;1.70;;;0.30;;
64208;SDS011;50527;52.414;13.226;2023-10-08T08:18:41;3.50;;;0.60;;
64208;SDS011;50527;52.414;13.226;2023-10-08T08:21:18;1.58;;;0.50;;
64208;SDS011;50527;52.414;13.226;2023-10-08T08:23:47;1.77;;;0.40;;
64208;SDS011;50527;52.414;13.226;2023-10-08T08:26:16;2.50;;;0.40;;
64208;SDS011;50527;52.414;13.226;2023-10-08T08:29:01;3.08;;;0.40;;
64208;SDS011;50527;52.414;13.226;2023-10-08T08:31:27;3.03;;;0.50;;
64208;SDS011;50527;52.414;13.226;2023-10-08T08:36:28;2.85;;;0.20;;
64208;SDS011;50527;52.414;13.226;2023-10-08T08:38:55;0.30;;;0.17;;
64208;SDS011;50527;52.414;13.226;2023-10-08T08:41:20;3.38;;;0.40;;
64208;SDS011;50527;52.414;13.226;2023-10-08T08:43:48;3.70;;;0.35;;
64208;SDS011;50527;52.414;13.226;2023-10-08T08:46:21;3.05;;;0.52;;
64208;SDS011;50527;52.414;13.226;2023-10-08T08:48:53;6.57;;;0.43;;
64208;SDS011;50527;52.414;13.226;2023-10-08T08:51:20;1.60;;;0.30;;
64208;SDS011;50527;52.414;13.226;2023-10-08T08:53:48;3.60;;;0.30;;
64208;SDS011;50527;52.414;13.226;2023-10-08T08:56:14;1.52;;;0.38;;
64208;SDS011;50527;52.414;13.226;2023-10-08T08:58:43;2.15;;;0.28;;
64208;SDS011;50527;52.414;13.226;2023-10-08T09:01:10;1.02;;;0.20;;
64208;SDS011;50527;52.414;13.226;2023-10-08T09:03:38;1.17;;;0.20;;
64208;SDS011;50527;52.414;13.226;2023-10-08T09:06:04;1.48;;;0.20;;
64208;SDS011;50527;52.414;13.226;2023-10-08T09:08:37;2.00;;;0.25;;
64208;SDS011;50527;52.414;13.226;2023-10-08T09:11:06;4.03;;;0.30;;
64208;SDS011;50527;52.414;13.226;2023-10-08T09:13:33;7.88;;;0.50;;
64208;SDS011;50527;52.414;13.226;2023-10-08T09:18:33;3.40;;;0.63;;
64208;SDS011;50527;52.414;13.226;2023-10-08T09:21:09;3.15;;;0.38;;
64208;SDS011;50527;52.414;13.226;2023-10-08T09:23:42;5.65;;;0.70;;
64208;SDS011;50527;52.414;13.226;2023-10-08T09:26:09;0.32;;;0.20;;
64208;SDS011;50527;52.414;13.226;2023-10-08T09:28:39;2.53;;;0.30;;
64208;SDS011;50527;52.414;13.226;2023-10-08T09:31:11;1.30;;;0.10;;
64208;SDS011;50527;52.414;13.226;2023-10-08T09:33:37;0.93;;;0.20;;
64208;SDS011;50527;52.414;13.226;2023-10-08T09:36:04;0.80;;;0.22;;
64208;SDS011;50527;52.414;13.226;2023-10-08T09:38:30;1.48;;;0.20;;
64208;SDS011;50527;52.414;13.226;2023-10-08T09:40:56;0.57;;;0.15;;
64208;SDS011;50527;52.414;13.226;2023-10-08T09:43:24;2.72;;;0.20;;
64208;SDS011;50527;52.414;13.226;2023-10-08T09:45:52;0.75;;;0.25;;
64208;SDS011;50527;52.414;13.226;2023-10-08T09:48:22;0.60;;;0.17;;
64208;SDS011;50527;52.414;13.226;2023-10-08T09:50:50;0.43;;;0.10;;
64208;SDS011;50527;52.414;13.226;2023-10-08T09:53:18;3.90;;;0.20;;
64208;SDS011;50527;52.414;13.226;2023-10-08T09:55:54;0.90;;;0.10;;
64208;SDS011;50527;52.414;13.226;2023-10-08T09:58:21;0.60;;;0.10;;
64208;SDS011;50527;52.414;13.226;2023-10-08T10:00:49;1.27;;;0.20;;
64208;SDS011;50527;52.414;13.226;2023-10-08T10:03:16;2.30;;;0.20;;
64208;SDS011;50527;52.414;13.226;2023-10-08T10:05:44;0.43;;;0.10;;
64208;SDS011;50527;52.414;13.226;2023-10-08T10:08:10;1.10;;;0.20;;
64208;SDS011;50527;52.414;13.226;2023-10-08T10:10:36;0.35;;;0.10;;
64208;SDS011;50527;52.414;13.226;2023-10-08T10:15:37;0.38;;;0.10;;
64208;SDS011;50527;52.414;13.226;2023-10-08T10:18:13;0.35;;;0.10;;
64208;SDS011;50527;52.414;13.226;2023-10-08T10:20:44;1.33;;;0.10;;
64208;SDS011;50527;52.414;13.226;2023-10-08T10:23:33;0.52;;;0.17;;
64208;SDS011;50527;52.414;13.226;2023-10-08T10:26:03;1.80;;;0.28;;
64208;SDS011;50527;52.414;13.226;2023-10-08T10:28:29;0.98;;;0.13;;
64208;SDS011;50527;52.414;13.226;2023-10-08T10:30:55;3.17;;;0.20;;
64208;SDS011;50527;52.414;13.226;2023-10-08T10:33:22;0.20;;;0.10;;
64208;SDS011;50527;52.414;13.226;2023-10-08T10:35:55;0.57;;;0.20;;
64208;SDS011;50527;52.414;13.226;2023-10-08T10:38:20;0.95;;;0.10;;
64208;SDS011;50527;52.414;13.226;2023-10-08T10:40:51;0.40;;;0.03;;
64208;SDS011;50527;52.414;13.226;2023-10-08T10:43:23;0.80;;;0.10;;
64208;SDS011;50527;52.414;13.226;2023-10-08T10:45:58;0.88;;;0.13;;
64208;SDS011;50527;52.414;13.226;2023-10-08T10:48:25;0.45;;;0.10;;
64208;SDS011;50527;52.414;13.226;2023-10-08T10:50:59;0.10;;;0.03;;
64208;SDS011;50527;52.414;13.226;2023-10-08T10:53:37;0.80;;;0.10;;
64208;SDS011;50527;52.414;13.226;2023-10-08T10:56:13;1.20;;;0.13;;
64208;SDS011;50527;52.414;13.226;2023-10-08T10:58:45;0.30;;;0.10;;
64208;SDS011;50527;52.414;13.226;2023-10-08T11:01:12;0.85;;;0.10;;
64208;SDS011;50527;52.414;13.226;2023-10-08T11:04:01;1.40;;;0.10;;
64208;SDS011;50527;52.414;13.226;2023-10-08T11:06:30;0.32;;;0.10;;
64208;SDS011;50527;52.414;13.226;2023-10-08T11:08:58;0.35;;;0.10;;
64208;SDS011;50527;52.414;13.226;2023-10-08T11:11:26;0.10;;;0.10;;
64208;SDS011;50527;52.414;13.226;2023-10-08T11:13:59;0.47;;;0.10;;
64208;SDS011;50527;52.414;13.226;2023-10-08T11:16:25;1.95;;;0.30;;
64208;SDS011;50527;52.414;13.226;2023-10-08T11:18:52;2.13;;;0.17;;
64208;SDS011;50527;52.414;13.226;2023-10-08T11:21:22;0.40;;;0.10;;
64208;SDS011;50527;52.414;13.226;2023-10-08T11:23:49;0.68;;;0.17;;
64208;SDS011;50527;52.414;13.226;2023-10-08T11:26:24;1.13;;;0.40;;
64208;SDS011;50527;52.414;13.226;2023-10-08T11:29:00;2.30;;;0.40;;
64208;SDS011;50527;52.414;13.226;2023-10-08T11:31:28;1.20;;;0.20;;
64208;SDS011;50527;52.414;13.226;2023-10-08T11:33:58;0.75;;;0.20;;
64208;SDS011;50527;52.414;13.226;2023-10-08T11:36:26;0.30;;;0.05;;
64208;SDS011;50527;52.414;13.226;2023-10-08T11:38:55;0.95;;;0.20;;
64208;SDS011;50527;52.414;13.226;2023-10-08T11:41:32;0.70;;;0.10;;
64208;SDS011;50527;52.414;13.226;2023-10-08T11:44:09;1.20;;;0.10;;
64208;SDS011;50527;52.414;13.226;2023-10-08T11:46:38;2.90;;;0.70;;
64208;SDS011;50527;52.414;13.226;2023-10-08T11:49:07;1.10;;;0.20;;
64208;SDS011;50527;52.414;13.226;2023-10-08T11:51:42;0.40;;;0.10;;
64208;SDS011;50527;52.414;13.226;2023-10-08T11:54:08;1.85;;;0.13;;
64208;SDS011;50527;52.414;13.226;2023-10-08T11:56:36;0.77;;;0.15;;
64208;SDS011;50527;52.414;13.226;2023-10-08T11:59:03;0.43;;;0.10;;
64208;SDS011;50527;52.414;13.226;2023-10-08T12:01:36;2.05;;;0.20;;
64208;SDS011;50527;52.414;13.226;2023-10-08T12:04:03;0.75;;;0.20;;
64208;SDS011;50527;52.414;13.226;2023-10-08T12:06:29;0.90;;;0.20;;
64208;SDS011;50527;52.414;13.226;2023-10-08T12:08:58;0.50;;;0.10;;
64208;SDS011;50527;52.414;13.226;2023-10-08T12:11:24;1.98;;;0.20;;
64208;SDS011;50527;52.414;13.226;2023-10-08T12:13:56;0.53;;;0.10;;
64208;SDS011;50527;52.414;13.226;2023-10-08T12:16:24;1.08;;;0.20;;
64208;SDS011;50527;52.414;13.226;2023-10-08T12:18:54;0.52;;;0.17;;
64208;SDS011;50527;52.414;13.226;2023-10-08T12:21:40;0.85;;;0.10;;
64208;SDS011;50527;52.414;13.226;2023-10-08T12:24:06;0.95;;;0.40;;
64208;SDS011;50527;52.414;13.226;2023-10-08T12:26:35;0.22;;;0.10;;
64208;SDS011;50527;52.414;13.226;2023-10-08T12:29:01;0.90;;;0.13;;
64208;SDS011;50527;52.414;13.226;2023-10-08T12:31:27;2.25;;;0.10;;
64208;SDS011;50527;52.414;13.226;2023-10-08T12:33:54;0.55;;;0.10;;
64208;SDS011;50527;52.414;13.226;2023-10-08T12:36:25;0.75;;;0.20;;
64208;SDS011;50527;52.414;13.226;2023-10-08T12:38:52;0.65;;;0.10;;
64208;SDS011;50527;52.414;13.226;2023-10-08T12:41:27;0.15;;;0.10;;
64208;SDS011;50527;52.414;13.226;2023-10-08T12:43:52;0.38;;;0.10;;
64208;SDS011;50527;52.414;13.226;2023-10-08T12:46:22;0.47;;;0.15;;
64208;SDS011;50527;52.414;13.226;2023-10-08T12:48:51;0.57;;;0.10;;
64208;SDS011;50527;52.414;13.226;2023-10-08T12:51:18;1.33;;;0.20;;
64208;SDS011;50527;52.414;13.226;2023-10-08T12:53:51;2.10;;;0.20;;
64208;SDS011;50527;52.414;13.226;2023-10-08T12:56:24;1.67;;;0.20;;
64208;SDS011;50527;52.414;13.226;2023-10-08T12:58:56;0.35;;;0.10;;
64208;SDS011;50527;52.414;13.226;2023-10-08T13:01:23;2.55;;;0.10;;
64208;SDS011;50527;52.414;13.226;2023-10-08T13:03:48;1.05;;;0.10;;
64208;SDS011;50527;52.414;13.226;2023-10-08T13:06:17;0.80;;;0.20;;
64208;SDS011;50527;52.414;13.226;2023-10-08T13:08:50;1.48;;;0.20;;
64208;SDS011;50527;52.414;13.226;2023-10-08T13:11:21;1.05;;;0.40;;
64208;SDS011;50527;52.414;13.226;2023-10-08T13:13:53;0.50;;;0.17;;
64208;SDS011;50527;52.414;13.226;2023-10-08T13:16:23;1.13;;;0.10;;
64208;SDS011;50527;52.414;13.226;2023-10-08T13:18:50;1.02;;;0.10;;
64208;SDS011;50527;52.414;13.226;2023-10-08T13:21:17;0.82;;;0.10;;
64208;SDS011;50527;52.414;13.226;2023-10-08T13:23:47;0.73;;;0.20;;
64208;SDS011;50527;52.414;13.226;2023-10-08T13:26:14;0.80;;;0.10;;
64208;SDS011;50527;52.414;13.226;2023-10-08T13:28:42;0.40;;;0.10;;
64208;SDS011;50527;52.414;13.226;2023-10-08T13:31:11;0.30;;;0.10;;
64208;SDS011;50527;52.414;13.226;2023-10-08T13:33:37;0.90;;;0.20;;
64208;SDS011;50527;52.414;13.226;2023-10-08T13:36:09;0.32;;;0.20;;
64208;SDS011;50527;52.414;13.226;2023-10-08T13:38:38;0.40;;;0.20;;
64208;SDS011;50527;52.414;13.226;2023-10-08T13:41:05;0.63;;;0.10;;
64208;SDS011;50527;52.414;13.226;2023-10-08T13:43:39;2.00;;;0.10;;
64208;SDS011;50527;52.414;13.226;2023-10-08T13:46:06;0.45;;;0.13;;
64208;SDS011;50527;52.414;13.226;2023-10-08T13:48:37;2.15;;;0.28;;
64208;SDS011;50527;52.414;13.226;2023-10-08T13:51:04;3.28;;;0.20;;
64208;SDS011;50527;52.414;13.226;2023-10-08T13:53:31;1.00;;;0.20;;
64208;SDS011;50527;52.414;13.226;2023-10-08T13:55:58;0.30;;;0.10;;
64208;SDS011;50527;52.414;13.226;2023-10-08T13:58:32;2.22;;;0.35;;
64208;SDS011;50527;52.414;13.226;2023-10-08T14:01:05;1.60;;;0.20;;
64208;SDS011;50527;52.414;13.226;2023-10-08T14:03:43;1.58;;;0.25;;
64208;SDS011;50527;52.414;13.226;2023-10-08T14:06:10;0.80;;;0.10;;
64208;SDS011;50527;52.414;13.226;2023-10-08T14:08:35;0.50;;;0.10;;
64208;SDS011;50527;52.414;13.226;2023-10-08T14:11:01;1.85;;;0.20;;
64208;SDS011;50527;52.414;13.226;2023-10-08T14:13:30;1.10;;;0.20;;
64208;SDS011;50527;52.414;13.226;2023-10-08T14:16:00;0.98;;;0.10;;
64208;SDS011;50527;52.414;13.226;2023-10-08T14:18:33;1.60;;;0.20;;
64208;SDS011;50527;52.414;13.226;2023-10-08T14:21:05;2.83;;;0.20;;
64208;SDS011;50527;52.414;13.226;2023-10-08T14:23:35;0.55;;;0.20;;
64208;SDS011;50527;52.414;13.226;2023-10-08T14:26:07;1.85;;;0.20;;
64208;SDS011;50527;52.414;13.226;2023-10-08T14:28:34;0.93;;;0.20;;
64208;SDS011;50527;52.414;13.226;2023-10-08T14:31:09;2.05;;;0.38;;
64208;SDS011;50527;52.414;13.226;2023-10-08T14:33:40;1.10;;;0.25;;
64208;SDS011;50527;52.414;13.226;2023-10-08T14:36:08;3.83;;;0.30;;
64208;SDS011;50527;52.414;13.226;2023-10-08T14:38:53;1.20;;;0.25;;
64208;SDS011;50527;52.414;13.226;2023-10-08T14:41:37;0.43;;;0.10;;
64208;SDS011;50527;52.414;13.226;2023-10-08T14:44:21;1.02;;;0.20;;
64208;SDS011;50527;52.414;13.226;2023-10-08T14:46:48;2.17;;;0.30;;
64208;SDS011;50527;52.414;13.226;2023-10-08T14:49:15;0.73;;;0.13;;
64208;SDS011;50527;52.414;13.226;2023-10-08T14:51:41;7.00;;;0.30;;
64208;SDS011;50527;52.414;13.226;2023-10-08T14:54:08;0.25;;;0.03;;
64208;SDS011;50527;52.414;13.226;2023-10-08T14:56:35;1.23;;;0.17;;
64208;SDS011;50527;52.414;13.226;2023-10-08T14:59:01;1.38;;;0.10;;
64208;SDS011;50527;52.414;13.226;2023-10-08T15:01:28;1.63;;;0.20;;
64208;SDS011;50527;52.414;13.226;2023-10-08T15:03:54;1.52;;;0.30;;
64208;SDS011;50527;52.414;13.226;2023-10-08T15:06:25;1.50;;;0.43;;
64208;SDS011;50527;52.414;13.226;2023-10-08T15:08:51;1.58;;;0.30;;
64208;SDS011;50527;52.414;13.226;2023-10-08T15:11:17;1.35;;;0.10;;